Weather at Egilsstaðir Airport

Public forecast

Using degrees Celsius for public forecast. Weather courtesy of forecast.io.

Current aviation weather report (METAR) for Egilsstaðir Airport

Retrieved 2020/11/23 18:00 UTC (30 minutes ago):

BIEG 231800Z 01010KT 9999 VCSH SCT017 BKN022 OVC026 01/01 Q0992 R04/790195

Aviation forecast (TAF) for Egilsstaðir Airport

Retrieved 2020/11/23 18:09 UTC (21 minutes ago):

TAF TAF BIEG 231606Z 2318/2418 36012KT 9999 SCT022 BKN028 TX01/2412Z TNM00/2318Z TEMPO 2318/2418 4000 -SN BKN012